createdAt,value
2019-03-24T00:02:28.281Z,4.40
2019-03-24T00:04:59.187Z,5.07
2019-03-24T00:07:31.959Z,5.87
2019-03-24T00:10:06.587Z,6.53
2019-03-24T00:12:37.504Z,6.57
2019-03-24T00:15:08.896Z,7.50
2019-03-24T00:17:39.810Z,6.63
2019-03-24T00:20:11.092Z,6.23
2019-03-24T00:22:42.029Z,7.57
2019-03-24T00:25:12.928Z,6.83
2019-03-24T00:27:43.854Z,5.83
2019-03-24T00:30:14.960Z,5.80
2019-03-24T00:32:45.876Z,6.40
2019-03-24T00:35:16.781Z,6.90
2019-03-24T00:37:47.727Z,7.60
2019-03-24T00:40:18.689Z,7.10
2019-03-24T00:42:49.621Z,4.60
2019-03-24T00:45:20.510Z,5.23
2019-03-24T00:47:52.328Z,4.57
2019-03-24T00:50:23.235Z,6.10
2019-03-24T00:52:54.222Z,5.23
2019-03-24T00:55:25.118Z,5.10
2019-03-24T00:57:56.044Z,5.10
2019-03-24T01:00:47.324Z,4.37
2019-03-24T01:03:18.327Z,4.60
2019-03-24T01:05:49.330Z,3.77
2019-03-24T01:08:21.131Z,3.73
2019-03-24T01:10:52.818Z,3.43
2019-03-24T01:13:23.756Z,4.10
2019-03-24T01:15:54.657Z,4.20
2019-03-24T01:18:25.584Z,3.83
2019-03-24T01:20:56.475Z,3.30
2019-03-24T01:23:27.414Z,3.63
2019-03-24T01:25:58.302Z,3.57
2019-03-24T01:28:29.230Z,3.43
2019-03-24T01:31:00.116Z,4.33
2019-03-24T01:33:31.034Z,4.40
2019-03-24T01:36:01.922Z,3.27
2019-03-24T01:38:33.748Z,3.87
2019-03-24T01:41:08.233Z,4.00
2019-03-24T01:43:39.144Z,3.57
2019-03-24T01:46:10.053Z,3.53
2019-03-24T01:48:40.982Z,3.33
2019-03-24T01:51:11.877Z,3.70
2019-03-24T01:53:43.678Z,3.97
2019-03-24T01:56:14.570Z,4.23
2019-03-24T01:58:45.484Z,3.93
2019-03-24T02:01:16.456Z,4.20
2019-03-24T02:03:47.374Z,3.90
2019-03-24T02:06:18.259Z,4.73
2019-03-24T02:08:50.126Z,4.60
2019-03-24T02:11:21.794Z,4.80
2019-03-24T02:13:53.560Z,4.47
2019-03-24T02:16:24.476Z,4.03
2019-03-24T02:18:55.406Z,4.80
2019-03-24T02:21:26.306Z,4.13
2019-03-24T02:23:58.140Z,3.20
2019-03-24T02:26:29.100Z,3.93
2019-03-24T02:29:00.034Z,3.93
2019-03-24T02:31:34.490Z,3.50
2019-03-24T02:34:05.428Z,4.40
2019-03-24T02:36:36.333Z,3.70
2019-03-24T02:39:12.008Z,3.70
2019-03-24T02:41:42.907Z,3.57
2019-03-24T02:44:14.650Z,3.87
2019-03-24T02:46:45.557Z,4.63
2019-03-24T02:49:16.471Z,3.50
2019-03-24T02:51:47.436Z,4.00
2019-03-24T02:54:19.273Z,4.40
2019-03-24T02:56:50.141Z,4.90
2019-03-24T02:59:21.065Z,3.60
2019-03-24T03:01:51.962Z,4.10
2019-03-24T03:04:22.874Z,3.50
2019-03-24T03:06:53.774Z,3.63
2019-03-24T03:09:24.724Z,3.97
2019-03-24T03:11:55.623Z,3.50
2019-03-24T03:14:26.541Z,3.90
2019-03-24T03:16:57.434Z,4.70
2019-03-24T03:19:28.345Z,4.13
2019-03-24T03:21:59.252Z,3.40
2019-03-24T03:24:30.492Z,3.30
2019-03-24T03:27:01.495Z,3.33
2019-03-24T03:29:32.410Z,3.27
2019-03-24T03:32:04.426Z,3.87
2019-03-24T03:34:35.329Z,3.43
2019-03-24T03:37:06.416Z,3.60
2019-03-24T03:39:38.194Z,3.43
2019-03-24T03:42:09.124Z,3.00
2019-03-24T03:44:40.055Z,3.73
2019-03-24T03:47:10.949Z,3.50
2019-03-24T03:49:41.869Z,4.53
2019-03-24T03:52:12.787Z,3.93
2019-03-24T03:54:43.740Z,3.10
2019-03-24T03:57:17.173Z,3.47
2019-03-24T03:59:47.250Z,3.37
2019-03-24T04:02:18.239Z,3.40
2019-03-24T04:04:49.164Z,3.63
2019-03-24T04:07:20.054Z,4.17
2019-03-24T04:09:51.007Z,4.20
2019-03-24T04:12:22.708Z,4.03
2019-03-24T04:14:53.568Z,3.97
2019-03-24T04:17:24.535Z,3.87
2019-03-24T04:19:55.468Z,3.80
2019-03-24T04:22:26.367Z,4.07
2019-03-24T04:24:57.290Z,4.47
2019-03-24T04:27:28.200Z,4.53
2019-03-24T04:30:10.191Z,4.23
2019-03-24T04:32:37.133Z,4.00
2019-03-24T04:35:09.265Z,4.17
2019-03-24T04:37:40.156Z,3.73
2019-03-24T04:40:12.000Z,3.37
2019-03-24T04:42:42.896Z,3.83
2019-03-24T04:45:13.916Z,5.17
2019-03-24T04:47:44.812Z,3.27
2019-03-24T04:50:15.858Z,4.70
2019-03-24T04:52:46.726Z,4.30
2019-03-24T04:55:17.689Z,4.17
2019-03-24T04:57:48.592Z,4.47
2019-03-24T05:00:22.437Z,4.93
2019-03-24T05:02:56.334Z,5.43
2019-03-24T05:05:27.266Z,5.23
2019-03-24T05:07:58.671Z,4.40
2019-03-24T05:10:29.615Z,4.07
2019-03-24T05:13:01.293Z,4.40
2019-03-24T05:15:32.221Z,4.57
2019-03-24T05:18:03.124Z,4.20
2019-03-24T05:20:34.053Z,4.60
2019-03-24T05:23:07.892Z,4.93
2019-03-24T05:25:38.835Z,4.70
2019-03-24T05:28:09.720Z,4.53
2019-03-24T05:30:40.660Z,4.57
2019-03-24T05:33:17.544Z,5.70
2019-03-24T05:35:48.706Z,5.40
2019-03-24T05:38:19.606Z,5.63
2019-03-24T05:40:50.665Z,5.23
2019-03-24T05:43:21.560Z,5.70
2019-03-24T05:45:52.473Z,5.63
2019-03-24T05:48:23.383Z,5.37
2019-03-24T05:50:54.318Z,5.33
2019-03-24T05:53:25.226Z,5.20
2019-03-24T05:55:56.182Z,4.73
2019-03-24T05:58:27.074Z,5.03
2019-03-24T06:00:58.006Z,4.97
2019-03-24T06:03:28.910Z,6.20
2019-03-24T06:05:59.837Z,5.50
2019-03-24T06:08:30.729Z,5.10
2019-03-24T06:11:02.587Z,4.80
2019-03-24T06:13:33.464Z,6.20
2019-03-24T06:16:04.398Z,4.10
2019-03-24T06:18:35.313Z,4.80
2019-03-24T06:21:06.224Z,5.63
2019-03-24T06:23:37.124Z,5.40
2019-03-24T06:26:08.090Z,5.37
2019-03-24T06:28:38.986Z,4.50
2019-03-24T06:31:09.925Z,4.93
2019-03-24T06:33:40.828Z,5.27
2019-03-24T06:36:11.750Z,4.87
2019-03-24T06:38:42.651Z,5.30
2019-03-24T06:41:14.412Z,5.33
2019-03-24T06:43:45.312Z,5.40
2019-03-24T06:46:16.237Z,5.37
2019-03-24T06:48:47.142Z,4.57
2019-03-24T06:51:18.069Z,5.70
2019-03-24T06:53:48.962Z,4.27
2019-03-24T06:56:21.512Z,3.90
2019-03-24T06:58:52.404Z,4.47
2019-03-24T07:01:23.360Z,3.87
2019-03-24T07:03:54.222Z,4.87
2019-03-24T07:06:25.150Z,4.20
2019-03-24T07:08:56.050Z,4.80
2019-03-24T07:11:27.874Z,4.40
2019-03-24T07:13:58.769Z,4.60
2019-03-24T07:16:29.698Z,4.47
2019-03-24T07:19:00.595Z,4.57
2019-03-24T07:21:31.543Z,4.97
2019-03-24T07:24:02.433Z,6.30
2019-03-24T07:26:35.043Z,4.60
2019-03-24T07:29:05.961Z,4.33
2019-03-24T07:31:36.887Z,3.77
2019-03-24T07:34:07.843Z,4.07
2019-03-24T07:36:38.771Z,4.03
2019-03-24T07:39:09.741Z,5.37
2019-03-24T07:41:41.504Z,4.10
2019-03-24T07:44:12.394Z,5.20
2019-03-24T07:46:43.319Z,4.77
2019-03-24T07:49:14.298Z,4.20
2019-03-24T07:51:45.219Z,5.40
2019-03-24T07:54:16.186Z,4.13
2019-03-24T07:56:48.767Z,4.37
2019-03-24T07:59:19.667Z,4.23
2019-03-24T08:01:50.594Z,4.20
2019-03-24T08:04:21.495Z,4.43
2019-03-24T08:06:57.117Z,6.50
2019-03-24T08:09:28.579Z,4.10
2019-03-24T08:12:00.390Z,3.63
2019-03-24T08:14:32.130Z,4.90
2019-03-24T08:17:03.065Z,5.07
2019-03-24T08:19:33.960Z,6.40
2019-03-24T08:22:04.962Z,7.93
2019-03-24T08:24:36.103Z,8.13
2019-03-24T08:27:07.912Z,6.50
2019-03-24T08:29:40.131Z,6.40
2019-03-24T08:32:11.483Z,4.67
2019-03-24T08:34:42.375Z,4.50
2019-03-24T08:37:14.082Z,4.47
2019-03-24T08:39:44.995Z,4.73
2019-03-24T08:42:16.948Z,5.43
2019-03-24T08:44:47.865Z,5.03
2019-03-24T08:47:18.778Z,4.60
2019-03-24T08:49:50.191Z,4.43
2019-03-24T08:52:21.135Z,5.50
2019-03-24T08:54:52.064Z,6.20
2019-03-24T08:57:23.900Z,5.83
2019-03-24T08:59:54.819Z,4.67
2019-03-24T09:02:25.753Z,3.73
2019-03-24T09:04:56.682Z,3.90
2019-03-24T09:07:27.614Z,5.57
2019-03-24T09:09:58.522Z,3.83
2019-03-24T09:12:31.249Z,4.37
2019-03-24T09:15:02.113Z,4.45
2019-03-24T09:17:33.077Z,4.17
2019-03-24T09:20:05.364Z,5.83
2019-03-24T09:22:36.300Z,4.50
2019-03-24T09:25:08.122Z,4.87
2019-03-24T09:27:40.004Z,5.72
2019-03-24T09:30:16.385Z,4.37
2019-03-24T09:32:47.308Z,3.98
2019-03-24T09:35:18.222Z,6.40
2019-03-24T09:37:49.171Z,10.35
2019-03-24T09:40:28.605Z,5.85
2019-03-24T09:43:01.977Z,5.00
2019-03-24T09:45:33.173Z,4.05
2019-03-24T09:48:04.404Z,5.08
2019-03-24T09:50:35.305Z,4.12
2019-03-24T09:53:06.737Z,3.45
2019-03-24T09:55:37.645Z,4.20
2019-03-24T09:58:09.472Z,4.17
2019-03-24T10:00:40.378Z,6.65
2019-03-24T10:03:11.307Z,5.10
2019-03-24T10:05:42.229Z,6.30
2019-03-24T10:08:13.447Z,4.70
2019-03-24T10:10:44.318Z,5.25
2019-03-24T10:13:15.267Z,17.12
2019-03-24T10:15:46.186Z,10.80
2019-03-24T10:18:17.116Z,9.85
2019-03-24T10:20:51.140Z,8.00
2019-03-24T10:23:22.201Z,20.00
2019-03-24T10:25:53.064Z,15.95
2019-03-24T10:28:24.820Z,20.97
2019-03-24T10:30:55.731Z,21.70
2019-03-24T10:33:26.694Z,10.80
2019-03-24T10:35:57.612Z,7.12
2019-03-24T10:38:28.547Z,9.20
2019-03-24T10:40:59.449Z,6.85
2019-03-24T10:43:31.410Z,8.18
2019-03-24T10:46:08.034Z,6.17
2019-03-24T10:48:35.112Z,7.67
2019-03-24T10:51:06.078Z,5.33
2019-03-24T10:53:37.010Z,6.25
2019-03-24T10:56:07.907Z,6.28
2019-03-24T10:58:39.726Z,13.50
2019-03-24T11:01:10.710Z,53.00
2019-03-24T11:03:41.656Z,28.67
2019-03-24T11:06:12.565Z,9.10
2019-03-24T11:08:43.510Z,6.65
2019-03-24T11:11:14.430Z,4.97
2019-03-24T11:13:45.377Z,6.03
2019-03-24T11:16:17.944Z,6.70
2019-03-24T11:18:48.949Z,9.15
2019-03-24T11:21:19.849Z,7.03
2019-03-24T11:23:50.773Z,5.30
2019-03-24T11:26:21.684Z,6.50
2019-03-24T11:28:53.544Z,9.58
2019-03-24T11:31:24.455Z,9.60
2019-03-24T11:33:55.388Z,5.37
2019-03-24T11:36:26.292Z,5.50
2019-03-24T11:38:59.064Z,6.20
2019-03-24T11:41:29.826Z,7.95
2019-03-24T11:44:01.731Z,8.98
2019-03-24T11:46:32.665Z,8.53
2019-03-24T11:49:03.593Z,5.80
2019-03-24T11:51:34.502Z,7.30
2019-03-24T11:54:05.427Z,7.72
2019-03-24T11:56:36.338Z,11.65
2019-03-24T11:59:08.488Z,7.37
2019-03-24T12:01:39.635Z,5.20
2019-03-24T12:04:10.632Z,6.05
2019-03-24T12:06:41.552Z,5.60
2019-03-24T12:09:12.562Z,5.17
2019-03-24T12:11:43.458Z,5.22
2019-03-24T12:14:15.258Z,5.85
2019-03-24T12:16:47.869Z,5.97
2019-03-24T12:19:18.804Z,20.40
2019-03-24T12:21:49.784Z,7.75
2019-03-24T12:24:20.722Z,15.23
2019-03-24T12:26:51.636Z,19.70
2019-03-24T12:29:23.450Z,5.72
2019-03-24T12:31:54.351Z,8.68
2019-03-24T12:34:25.319Z,14.23
2019-03-24T12:36:56.444Z,7.37
2019-03-24T12:39:28.172Z,4.90
2019-03-24T12:41:59.075Z,4.85
2019-03-24T12:44:31.053Z,6.60
2019-03-24T12:47:01.960Z,6.58
2019-03-24T12:49:32.899Z,4.97
2019-03-24T12:52:03.808Z,5.17
2019-03-24T12:54:34.804Z,5.15
2019-03-24T12:57:05.722Z,6.87
2019-03-24T12:59:37.592Z,13.53
2019-03-24T13:02:08.513Z,14.25
2019-03-24T13:04:39.452Z,8.90
2019-03-24T13:07:10.366Z,16.55
2019-03-24T13:09:41.301Z,6.90
2019-03-24T13:12:12.227Z,5.20
2019-03-24T13:14:44.144Z,4.53
2019-03-24T13:17:15.928Z,4.28
2019-03-24T13:19:46.859Z,3.83
2019-03-24T13:22:19.152Z,4.20
2019-03-24T13:24:50.139Z,5.17
2019-03-24T13:27:21.054Z,4.42
2019-03-24T13:29:52.029Z,4.80
2019-03-24T13:32:22.931Z,5.37
2019-03-24T13:34:53.883Z,12.75
2019-03-24T13:37:24.791Z,6.03
2019-03-24T13:39:55.718Z,5.50
2019-03-24T13:42:26.617Z,4.70
2019-03-24T13:44:58.361Z,5.72
2019-03-24T13:47:29.276Z,8.30
2019-03-24T13:50:00.383Z,5.20
2019-03-24T13:52:31.296Z,6.40
2019-03-24T13:55:02.240Z,7.03
2019-03-24T13:57:33.269Z,6.47
2019-03-24T14:00:07.462Z,11.10
2019-03-24T14:02:40.946Z,8.53
2019-03-24T14:05:11.954Z,6.10
2019-03-24T14:07:44.851Z,10.32
2019-03-24T14:10:16.349Z,7.67
2019-03-24T14:12:47.376Z,15.08
2019-03-24T14:15:19.461Z,8.38
2019-03-24T14:17:51.408Z,4.72
2019-03-24T14:20:22.388Z,6.60
2019-03-24T14:22:55.350Z,4.72
2019-03-24T14:25:25.935Z,3.75
2019-03-24T14:27:56.918Z,4.25
2019-03-24T14:30:46.010Z,4.10
2019-03-24T14:33:16.934Z,4.25
2019-03-24T14:35:48.200Z,5.72
2019-03-24T14:38:19.114Z,4.55
2019-03-24T14:40:50.040Z,7.28
2019-03-24T14:43:20.958Z,6.20
2019-03-24T14:45:52.726Z,5.10
2019-03-24T14:48:23.632Z,4.67
2019-03-24T14:50:55.084Z,6.50
2019-03-24T14:53:26.156Z,5.25
2019-03-24T14:55:57.167Z,4.80
2019-03-24T14:58:28.087Z,6.37
2019-03-24T15:00:59.216Z,9.23
2019-03-24T15:03:30.138Z,12.10
2019-03-24T15:06:01.184Z,4.90
2019-03-24T15:08:32.162Z,11.10
2019-03-24T15:11:03.115Z,47.38
2019-03-24T15:13:34.103Z,17.55
2019-03-24T15:16:05.876Z,12.65
2019-03-24T15:18:37.572Z,23.22
2019-03-24T15:21:11.493Z,12.60
2019-03-24T15:23:42.253Z,11.60
2019-03-24T15:26:13.209Z,6.72
2019-03-24T15:28:44.141Z,4.62
2019-03-24T15:31:15.111Z,8.83
2019-03-24T15:33:46.016Z,8.93
2019-03-24T15:36:16.983Z,6.37
2019-03-24T15:38:47.886Z,5.97
2019-03-24T15:41:18.910Z,7.47
2019-03-24T15:43:49.934Z,7.73
2019-03-24T15:46:21.891Z,9.48
2019-03-24T15:48:52.829Z,5.53
2019-03-24T15:51:23.789Z,4.70
2019-03-24T15:53:56.772Z,6.07
2019-03-24T15:56:48.790Z,4.33
2019-03-24T15:59:20.657Z,4.13
2019-03-24T16:01:54.332Z,3.90
2019-03-24T16:04:25.340Z,4.07
2019-03-24T16:07:06.206Z,8.10
2019-03-24T16:09:48.383Z,8.83
2019-03-24T16:12:28.222Z,28.13
2019-03-24T16:15:00.581Z,49.60
2019-03-24T16:17:32.838Z,15.30
2019-03-24T16:20:07.486Z,13.00
2019-03-24T16:22:41.214Z,12.73
2019-03-24T16:25:12.107Z,8.23
2019-03-24T16:27:43.038Z,5.73
2019-03-24T16:30:13.966Z,5.93
2019-03-24T16:32:45.782Z,8.00
2019-03-24T16:35:16.679Z,6.90
2019-03-24T16:37:47.604Z,7.67
2019-03-24T16:40:19.259Z,6.30
2019-03-24T16:42:50.186Z,6.30
2019-03-24T16:45:21.150Z,8.70
2019-03-24T16:47:52.891Z,9.17
2019-03-24T16:50:23.806Z,8.37
2019-03-24T16:52:54.733Z,8.90
2019-03-24T16:55:27.830Z,10.00
2019-03-24T16:57:58.765Z,27.13
2019-03-24T17:00:29.756Z,29.93
2019-03-24T17:03:00.851Z,11.70
2019-03-24T17:05:31.830Z,8.33
2019-03-24T17:08:02.749Z,7.63
2019-03-24T17:10:33.774Z,8.50
2019-03-24T17:13:04.711Z,9.60
2019-03-24T17:15:35.613Z,7.13
2019-03-24T17:18:07.643Z,11.13
2019-03-24T17:20:41.556Z,12.00
2019-03-24T17:23:12.495Z,8.90
2019-03-24T17:25:43.402Z,7.10
2019-03-24T17:28:14.407Z,7.57
2019-03-24T17:30:45.318Z,7.27
2019-03-24T17:33:17.899Z,7.73
2019-03-24T17:35:48.862Z,8.23
2019-03-24T17:38:19.851Z,8.87
2019-03-24T17:40:50.772Z,11.53
2019-03-24T17:43:22.024Z,10.40
2019-03-24T17:45:54.474Z,10.57
2019-03-24T17:48:26.221Z,14.23
2019-03-24T17:50:57.130Z,15.00
2019-03-24T17:53:28.054Z,13.47
2019-03-24T17:55:58.951Z,16.10
2019-03-24T17:58:29.945Z,18.20
2019-03-24T18:01:01.928Z,18.87
2019-03-24T18:03:33.666Z,20.43
2019-03-24T18:06:04.585Z,20.00
2019-03-24T18:08:35.510Z,19.83
2019-03-24T18:11:06.416Z,20.27
2019-03-24T18:13:37.395Z,36.80
2019-03-24T18:16:08.336Z,34.23
2019-03-24T18:18:40.096Z,15.70
2019-03-24T18:21:11.777Z,12.83
2019-03-24T18:23:42.711Z,10.70
2019-03-24T18:26:13.617Z,12.77
2019-03-24T18:28:44.552Z,13.17
2019-03-24T18:31:15.459Z,15.23
2019-03-24T18:33:47.244Z,13.90
2019-03-24T18:36:18.311Z,16.83
2019-03-24T18:38:49.260Z,13.37
2019-03-24T18:41:20.168Z,11.90
2019-03-24T18:43:51.099Z,21.93
2019-03-24T18:46:22.021Z,51.60
2019-03-24T18:48:53.823Z,36.37
2019-03-24T18:51:24.741Z,35.07
2019-03-24T18:53:55.816Z,31.83
2019-03-24T18:56:26.720Z,33.37
2019-03-24T18:58:57.661Z,31.83
2019-03-24T19:01:28.570Z,28.80
2019-03-24T19:03:59.663Z,25.63
2019-03-24T19:06:30.558Z,22.13
2019-03-24T19:09:01.501Z,16.00
2019-03-24T19:11:33.350Z,36.60
2019-03-24T19:14:04.386Z,28.03
2019-03-24T19:16:35.300Z,26.10
2019-03-24T19:19:07.098Z,19.73
2019-03-24T19:21:38.810Z,15.93
2019-03-24T19:24:09.750Z,17.47
2019-03-24T19:26:40.669Z,19.40
2019-03-24T19:29:11.604Z,15.03
2019-03-24T19:31:42.705Z,17.80
2019-03-24T19:34:14.445Z,13.27
2019-03-24T19:36:45.358Z,14.90
2019-03-24T19:39:16.292Z,15.97
2019-03-24T19:41:47.226Z,12.07
2019-03-24T19:44:18.152Z,13.67
2019-03-24T19:46:49.069Z,20.13
2019-03-24T19:49:20.825Z,20.87
2019-03-24T19:51:51.721Z,14.30
2019-03-24T19:54:22.731Z,12.53
2019-03-24T19:56:53.630Z,10.63
2019-03-24T19:59:24.582Z,12.03
2019-03-24T20:01:55.491Z,11.43
2019-03-24T20:04:27.265Z,11.10
2019-03-24T20:06:58.163Z,10.13
2019-03-24T20:09:29.171Z,12.10
2019-03-24T20:12:00.071Z,11.53
2019-03-24T20:14:31.017Z,11.70
2019-03-24T20:17:02.003Z,10.97
2019-03-24T20:19:32.981Z,9.83
2019-03-24T20:22:05.484Z,11.17
2019-03-24T20:24:36.437Z,11.73
2019-03-24T20:27:07.344Z,10.50
2019-03-24T20:29:38.279Z,11.67
2019-03-24T20:32:09.243Z,11.70
2019-03-24T20:34:40.995Z,11.87
2019-03-24T20:37:11.890Z,12.60
2019-03-24T20:39:43.622Z,12.87
2019-03-24T20:42:14.532Z,12.03
2019-03-24T20:44:45.464Z,12.07
2019-03-24T20:47:16.455Z,10.23
2019-03-24T20:49:48.196Z,10.53
2019-03-24T20:52:19.102Z,13.63
2019-03-24T20:54:50.039Z,12.60
2019-03-24T20:57:20.934Z,11.60
2019-03-24T20:59:54.493Z,11.47
2019-03-24T21:02:25.458Z,12.53
2019-03-24T21:04:57.212Z,12.70
2019-03-24T21:07:28.111Z,12.20
2019-03-24T21:09:59.051Z,10.90
2019-03-24T21:12:29.951Z,11.07
2019-03-24T21:15:00.878Z,12.17
2019-03-24T21:17:31.771Z,10.03
2019-03-24T21:20:02.723Z,9.03
2019-03-24T21:22:34.443Z,10.13
2019-03-24T21:25:06.606Z,9.33
2019-03-24T21:27:37.609Z,10.47
2019-03-24T21:30:11.751Z,11.53
2019-03-24T21:32:42.580Z,15.43
2019-03-24T21:35:14.465Z,15.03
2019-03-24T21:37:45.374Z,13.80
2019-03-24T21:40:16.311Z,13.13
2019-03-24T21:42:47.274Z,13.27
2019-03-24T21:45:18.193Z,12.80
2019-03-24T21:47:49.106Z,13.40
2019-03-24T21:50:20.155Z,12.70
2019-03-24T21:52:51.059Z,12.77
2019-03-24T21:55:22.012Z,14.40
2019-03-24T21:57:57.497Z,14.33
2019-03-24T22:00:33.657Z,13.20
2019-03-24T22:03:04.822Z,15.03
2019-03-24T22:05:35.871Z,15.13
2019-03-24T22:08:06.781Z,21.17
2019-03-24T22:10:37.710Z,26.20
2019-03-24T22:13:08.610Z,23.90
2019-03-24T22:15:39.537Z,19.27
2019-03-24T22:18:10.458Z,21.00
2019-03-24T22:20:48.821Z,22.07
2019-03-24T22:23:15.590Z,19.63
2019-03-24T22:25:46.529Z,17.30
2019-03-24T22:28:17.428Z,14.60
2019-03-24T22:30:48.364Z,15.20
2019-03-24T22:33:19.266Z,14.80
2019-03-24T22:35:51.014Z,13.43
2019-03-24T22:38:21.911Z,13.33
2019-03-24T22:41:02.040Z,14.70
2019-03-24T22:43:32.945Z,14.17
2019-03-24T22:46:03.867Z,15.43
2019-03-24T22:48:34.760Z,16.63
2019-03-24T22:51:05.714Z,15.37
2019-03-24T22:53:36.603Z,14.83
2019-03-24T22:56:07.532Z,14.90
2019-03-24T22:58:38.497Z,15.60
2019-03-24T23:01:10.097Z,15.07
2019-03-24T23:03:41.047Z,14.90
2019-03-24T23:06:13.677Z,12.93
2019-03-24T23:08:44.686Z,12.90
2019-03-24T23:11:15.640Z,12.27
2019-03-24T23:13:46.679Z,12.60
2019-03-24T23:16:17.641Z,10.87
2019-03-24T23:18:48.607Z,9.70
2019-03-24T23:21:25.772Z,17.67
2019-03-24T23:23:57.656Z,17.50
2019-03-24T23:26:28.674Z,18.80
2019-03-24T23:28:59.677Z,16.03
2019-03-24T23:31:30.658Z,16.67
2019-03-24T23:34:08.906Z,15.57
2019-03-24T23:36:39.889Z,17.13
2019-03-24T23:39:10.821Z,16.50
2019-03-24T23:41:41.805Z,16.23
2019-03-24T23:44:12.716Z,16.87
2019-03-24T23:46:43.643Z,13.80
2019-03-24T23:49:14.554Z,13.10
2019-03-24T23:51:46.293Z,13.30
2019-03-24T23:54:27.083Z,14.40
2019-03-24T23:56:54.981Z,12.43
2019-03-24T23:59:25.890Z,11.30
